Airfield :
LOGIN :

Register | Disclaimer

   EN    FR    IT 

 










Legend :    VFR   Marginal VFR   IFR   Intensive IFR   Very Intensive IFR
Visi :
Ceiling :
>= 8 km
>= 3000ft
5 to 8 km
1000 to 3000 ft
1500m to 5 km
500 to 1000 ft
800 to 1500m
200 to 500 ft
< 800m
< 200 ft
Symbols :   Thunderstorms  Fog  Heavy snow  Heavy precipitations  Wind > 20 kt
SIGMETs :     Misc.  Thunderstorms  Icing  Turbulence  Mountain Waves  Volcanic Ashes







- Airport Elevation : 289 ft
- IATA code : ZAD


LDZD - Zadar

CURRENT METAR :
  • 262030Z 07004KT 030V110 8000 -RA FEW023 SCT030 BKN050 15/15 Q1014 NOSIG

EXPIRED METARs :
  • 262000Z 12004KT 090V170 7000 -RA FEW023 SCT033 BKN040 15/15 Q1015 NOSIG
  • 261930Z 13005KT 070V160 9999 -RA FEW020 SCT050 BKN074 15/15 Q1015 NOSIG
  • 261900Z 10003KT 050V140 9999 -RA FEW020 SCT030 BKN074 15/14 Q1014 NOSIG
  • 261830Z 11004KT 080V140 8000 -RA SCT022 BKN040 15/14 Q1014 NOSIG
  • 261800Z 12004KT 090V150 9999 FEW020 BKN040 15/14 Q1014 NOSIG

TAF COR TAF LDZD
Valid from the 26 at 18:00 until the 27 at 18:00 UTC


261736Z 2618/2718 14010KT 9999 SCT050 TX18/2712Z TN15/2703Z
TEMPO 2618/2718 4000 RA BKN010
TEMPO 2620/2705 10006KT
PROB30
TEMPO 2708/2715 13020KT
No reported NOTAMs for that airfield.



MET'MAP, your aeronautical weather chart ! - Copyright ORBIFLY December 2007 - Disclaimer

ORBIFLY MET'MAP TEAM :

Programming & Development : Alexandra Zaïnal
Concept & Development : Baudouin d'Aumeries
Co-Development & Prog : Marc-Olivier Méhu
Technical & hardware support : Manuel Goepfert

Contact : metmap@orbifly.com




SOURCES & CREDITS :

   NOAA